sensor_id;sensor_type;location;lat;lon;timestamp;pressure;altitude;pressure_sealevel;temperature;humidity
65173;BME280;51758;52.218;5.172;2023-03-22T00:01:27;99282.78;;;8.61;100.00
65173;BME280;51758;52.218;5.172;2023-03-22T00:03:57;99277.41;;;8.56;100.00
65173;BME280;51758;52.218;5.172;2023-03-22T00:06:26;99267.00;;;8.56;100.00
65173;BME280;51758;52.218;5.172;2023-03-22T00:08:54;99268.41;;;8.59;100.00
65173;BME280;51758;52.218;5.172;2023-03-22T00:11:22;99271.00;;;8.66;100.00
65173;BME280;51758;52.218;5.172;2023-03-22T00:13:51;99263.19;;;8.72;100.00
65173;BME280;51758;52.218;5.172;2023-03-22T00:16:20;99268.19;;;8.74;100.00
65173;BME280;51758;52.218;5.172;2023-03-22T00:18:48;99256.78;;;8.68;100.00
65173;BME280;51758;52.218;5.172;2023-03-22T00:21:17;99255.19;;;8.74;100.00
65173;BME280;51758;52.218;5.172;2023-03-22T00:23:46;99226.78;;;8.52;100.00
65173;BME280;51758;52.218;5.172;2023-03-22T00:26:14;99264.34;;;8.76;100.00
65173;BME280;51758;52.218;5.172;2023-03-22T00:28:41;99254.94;;;8.75;100.00
65173;BME280;51758;52.218;5.172;2023-03-22T00:31:09;99260.38;;;8.74;100.00
65173;BME280;51758;52.218;5.172;2023-03-22T00:33:37;99265.56;;;8.80;100.00
65173;BME280;51758;52.218;5.172;2023-03-22T00:36:08;99256.38;;;8.71;100.00
65173;BME280;51758;52.218;5.172;2023-03-22T00:38:36;99246.38;;;8.61;100.00
65173;BME280;51758;52.218;5.172;2023-03-22T00:41:13;99256.38;;;8.71;100.00
65173;BME280;51758;52.218;5.172;2023-03-22T00:43:42;99271.78;;;8.66;100.00
65173;BME280;51758;52.218;5.172;2023-03-22T00:46:10;99261.78;;;8.63;100.00
65173;BME280;51758;52.218;5.172;2023-03-22T00:48:38;99252.97;;;8.64;100.00
65173;BME280;51758;52.218;5.172;2023-03-22T00:51:07;99247.38;;;8.67;100.00
65173;BME280;51758;52.218;5.172;2023-03-22T00:53:35;99248.59;;;8.65;100.00
65173;BME280;51758;52.218;5.172;2023-03-22T00:56:03;99238.38;;;8.70;100.00
65173;BME280;51758;52.218;5.172;2023-03-22T00:58:33;99236.38;;;8.72;100.00
65173;BME280;51758;52.218;5.172;2023-03-22T01:01:01;99237.38;;;8.71;100.00
65173;BME280;51758;52.218;5.172;2023-03-22T01:03:28;99237.75;;;8.74;100.00
65173;BME280;51758;52.218;5.172;2023-03-22T01:05:56;99232.31;;;8.82;100.00
65173;BME280;51758;52.218;5.172;2023-03-22T01:08:24;99231.72;;;8.80;100.00
65173;BME280;51758;52.218;5.172;2023-03-22T01:10:59;99227.88;;;8.89;100.00
65173;BME280;51758;52.218;5.172;2023-03-22T01:13:27;99213.91;;;8.77;100.00
65173;BME280;51758;52.218;5.172;2023-03-22T01:15:56;99237.34;;;8.84;100.00
65173;BME280;51758;52.218;5.172;2023-03-22T01:18:24;99227.28;;;8.87;100.00
65173;BME280;51758;52.218;5.172;2023-03-22T01:20:52;99231.13;;;8.85;100.00
65173;BME280;51758;52.218;5.172;2023-03-22T01:23:20;99231.94;;;8.85;100.00
65173;BME280;51758;52.218;5.172;2023-03-22T01:25:47;99226.28;;;8.88;100.00
65173;BME280;51758;52.218;5.172;2023-03-22T01:28:15;99224.88;;;8.92;100.00
65173;BME280;51758;52.218;5.172;2023-03-22T01:30:43;99222.88;;;8.88;100.00
65173;BME280;51758;52.218;5.172;2023-03-22T01:33:12;99236.69;;;8.88;100.00
65173;BME280;51758;52.218;5.172;2023-03-22T01:35:40;99223.47;;;8.90;100.00
65173;BME280;51758;52.218;5.172;2023-03-22T01:38:07;99234.50;;;8.92;100.00
65173;BME280;51758;52.218;5.172;2023-03-22T01:40:35;99234.09;;;8.88;100.00
65173;BME280;51758;52.218;5.172;2023-03-22T01:43:08;99197.53;;;8.70;100.00
65173;BME280;51758;52.218;5.172;2023-03-22T01:45:39;99235.28;;;8.92;100.00
65173;BME280;51758;52.218;5.172;2023-03-22T01:48:13;99233.69;;;8.91;100.00
65173;BME280;51758;52.218;5.172;2023-03-22T01:50:46;99231.28;;;8.90;100.00
65173;BME280;51758;52.218;5.172;2023-03-22T01:53:17;99234.28;;;8.93;100.00
65173;BME280;51758;52.218;5.172;2023-03-22T01:55:50;99233.09;;;8.89;100.00
65173;BME280;51758;52.218;5.172;2023-03-22T01:58:18;99240.09;;;8.89;100.00
65173;BME280;51758;52.218;5.172;2023-03-22T02:00:47;99241.50;;;8.91;100.00
65173;BME280;51758;52.218;5.172;2023-03-22T02:03:22;99238.50;;;8.88;100.00
65173;BME280;51758;52.218;5.172;2023-03-22T02:05:53;99231.53;;;8.82;100.00
65173;BME280;51758;52.218;5.172;2023-03-22T02:08:20;99229.31;;;8.85;100.00
65173;BME280;51758;52.218;5.172;2023-03-22T02:10:48;99225.13;;;8.84;100.00
65173;BME280;51758;52.218;5.172;2023-03-22T02:13:29;99222.91;;;8.81;100.00
65173;BME280;51758;52.218;5.172;2023-03-22T02:16:06;99224.94;;;8.79;100.00
65173;BME280;51758;52.218;5.172;2023-03-22T02:18:53;99213.31;;;8.82;100.00
65173;BME280;51758;52.218;5.172;2023-03-22T02:27:46;99176.94;;;8.69;100.00
65173;BME280;51758;52.218;5.172;2023-03-22T02:30:35;99179.06;;;8.85;100.00
65173;BME280;51758;52.218;5.172;2023-03-22T02:33:23;99150.66;;;8.83;100.00
65173;BME280;51758;52.218;5.172;2023-03-22T02:36:19;99159.41;;;8.89;100.00
65173;BME280;51758;52.218;5.172;2023-03-22T02:39:06;99149.41;;;8.92;100.00
65173;BME280;51758;52.218;5.172;2023-03-22T02:41:45;99150.41;;;8.91;100.00
65173;BME280;51758;52.218;5.172;2023-03-22T02:44:24;99138.41;;;8.90;100.00
65173;BME280;51758;52.218;5.172;2023-03-22T02:46:59;99137.59;;;8.96;100.00
65173;BME280;51758;52.218;5.172;2023-03-22T02:49:33;99127.38;;;8.95;100.00
65173;BME280;51758;52.218;5.172;2023-03-22T02:52:09;99111.91;;;9.00;100.00
65173;BME280;51758;52.218;5.172;2023-03-22T02:54:42;99107.09;;;9.04;100.00
65173;BME280;51758;52.218;5.172;2023-03-22T02:57:14;99097.28;;;9.06;100.00
65173;BME280;51758;52.218;5.172;2023-03-22T02:59:45;99089.25;;;9.07;100.00
65173;BME280;51758;52.218;5.172;2023-03-22T03:02:14;99082.25;;;9.08;100.00
65173;BME280;51758;52.218;5.172;2023-03-22T03:04:46;99074.22;;;9.09;100.00
65173;BME280;51758;52.218;5.172;2023-03-22T03:07:17;99063.44;;;9.06;100.00
65173;BME280;51758;52.218;5.172;2023-03-22T03:09:48;99031.31;;;8.87;100.00
65173;BME280;51758;52.218;5.172;2023-03-22T03:12:19;99041.69;;;8.93;100.00
65173;BME280;51758;52.218;5.172;2023-03-22T03:14:47;99051.59;;;9.10;100.00
65173;BME280;51758;52.218;5.172;2023-03-22T03:17:23;99042.44;;;9.01;100.00
65173;BME280;51758;52.218;5.172;2023-03-22T03:20:14;99026.06;;;8.93;100.00
65173;BME280;51758;52.218;5.172;2023-03-22T03:22:54;99029.38;;;9.07;100.00
65173;BME280;51758;52.218;5.172;2023-03-22T03:25:33;99018.16;;;9.07;100.00
65173;BME280;51758;52.218;5.172;2023-03-22T03:28:12;99012.91;;;9.13;100.00
65173;BME280;51758;52.218;5.172;2023-03-22T03:30:46;99010.28;;;9.13;100.00
65173;BME280;51758;52.218;5.172;2023-03-22T03:33:17;98993.31;;;9.11;100.00
65173;BME280;51758;52.218;5.172;2023-03-22T03:35:49;98990.72;;;9.11;100.00
65173;BME280;51758;52.218;5.172;2023-03-22T03:38:22;98984.50;;;9.12;100.00
65173;BME280;51758;52.218;5.172;2023-03-22T03:40:56;98972.25;;;9.12;100.00
65173;BME280;51758;52.218;5.172;2023-03-22T03:43:25;98956.59;;;9.19;100.00
65173;BME280;51758;52.218;5.172;2023-03-22T03:45:54;98940.81;;;9.14;100.00
65173;BME280;51758;52.218;5.172;2023-03-22T03:48:23;98959.34;;;9.24;100.00
65173;BME280;51758;52.218;5.172;2023-03-22T03:50:55;98948.94;;;9.24;100.00
65173;BME280;51758;52.218;5.172;2023-03-22T03:53:23;98949.38;;;9.21;100.00
65173;BME280;51758;52.218;5.172;2023-03-22T03:55:51;98946.75;;;9.21;100.00
65173;BME280;51758;52.218;5.172;2023-03-22T03:58:20;98944.06;;;9.27;100.00
65173;BME280;51758;52.218;5.172;2023-03-22T04:00:48;98935.03;;;9.30;100.00
65173;BME280;51758;52.218;5.172;2023-03-22T04:03:17;98946.34;;;9.24;100.00
65173;BME280;51758;52.218;5.172;2023-03-22T04:05:44;98932.16;;;9.20;100.00
65173;BME280;51758;52.218;5.172;2023-03-22T04:08:12;98936.94;;;9.23;100.00
65173;BME280;51758;52.218;5.172;2023-03-22T04:10:40;98927.31;;;9.23;100.00
65173;BME280;51758;52.218;5.172;2023-03-22T04:13:08;98918.72;;;9.23;100.00
65173;BME280;51758;52.218;5.172;2023-03-22T04:15:37;98914.63;;;9.27;100.00
65173;BME280;51758;52.218;5.172;2023-03-22T04:18:04;98920.44;;;9.29;100.00
65173;BME280;51758;52.218;5.172;2023-03-22T04:20:35;98917.69;;;9.24;100.00
65173;BME280;51758;52.218;5.172;2023-03-22T04:23:04;98908.09;;;9.24;100.00
65173;BME280;51758;52.218;5.172;2023-03-22T04:25:32;98905.09;;;9.21;100.00
65173;BME280;51758;52.218;5.172;2023-03-22T04:28:03;98894.69;;;9.21;100.00
65173;BME280;51758;52.218;5.172;2023-03-22T04:30:31;98886.00;;;9.27;100.00
65173;BME280;51758;52.218;5.172;2023-03-22T04:33:03;98876.25;;;9.22;100.00
65173;BME280;51758;52.218;5.172;2023-03-22T04:35:32;98888.38;;;9.28;100.00
65173;BME280;51758;52.218;5.172;2023-03-22T04:38:01;98886.44;;;9.24;100.00
65173;BME280;51758;52.218;5.172;2023-03-22T04:40:28;98882.75;;;9.31;100.00
65173;BME280;51758;52.218;5.172;2023-03-22T04:43:00;98882.38;;;9.28;100.00
65173;BME280;51758;52.218;5.172;2023-03-22T04:45:29;98890.94;;;9.35;100.00
65173;BME280;51758;52.218;5.172;2023-03-22T04:47:58;98879.94;;;9.33;100.00
65173;BME280;51758;52.218;5.172;2023-03-22T04:50:27;98871.03;;;9.41;100.00
65173;BME280;51758;52.218;5.172;2023-03-22T04:52:55;98867.13;;;9.31;100.00
65173;BME280;51758;52.218;5.172;2023-03-22T04:55:23;98872.34;;;9.31;100.00
65173;BME280;51758;52.218;5.172;2023-03-22T04:57:53;98876.75;;;9.31;100.00
65173;BME280;51758;52.218;5.172;2023-03-22T05:00:21;98878.13;;;9.33;100.00
65173;BME280;51758;52.218;5.172;2023-03-22T05:02:49;98875.91;;;9.37;100.00
65173;BME280;51758;52.218;5.172;2023-03-22T05:05:17;98871.13;;;9.34;100.00
65173;BME280;51758;52.218;5.172;2023-03-22T05:07:46;98868.72;;;9.32;100.00
65173;BME280;51758;52.218;5.172;2023-03-22T05:10:13;98874.50;;;9.34;100.00
65173;BME280;51758;52.218;5.172;2023-03-22T05:12:41;98875.16;;;9.30;100.00
65173;BME280;51758;52.218;5.172;2023-03-22T05:15:09;98872.75;;;9.28;100.00
65173;BME280;51758;52.218;5.172;2023-03-22T05:17:37;98881.81;;;9.26;100.00
65173;BME280;51758;52.218;5.172;2023-03-22T05:20:05;98885.06;;;9.21;100.00
65173;BME280;51758;52.218;5.172;2023-03-22T05:22:35;98884.66;;;9.24;100.00
65173;BME280;51758;52.218;5.172;2023-03-22T05:25:08;98885.41;;;9.25;100.00
65173;BME280;51758;52.218;5.172;2023-03-22T05:27:36;98890.41;;;9.26;100.00
65173;BME280;51758;52.218;5.172;2023-03-22T05:30:05;98888.59;;;9.27;100.00
65173;BME280;51758;52.218;5.172;2023-03-22T05:32:33;98880.72;;;9.33;100.00
65173;BME280;51758;52.218;5.172;2023-03-22T05:35:03;98885.19;;;9.26;100.00
65173;BME280;51758;52.218;5.172;2023-03-22T05:37:32;98882.53;;;9.33;100.00
65173;BME280;51758;52.218;5.172;2023-03-22T05:40:00;98882.53;;;9.33;100.00
65173;BME280;51758;52.218;5.172;2023-03-22T05:42:29;98882.53;;;9.33;100.00
65173;BME280;51758;52.218;5.172;2023-03-22T05:44:56;98886.66;;;9.41;100.00
65173;BME280;51758;52.218;5.172;2023-03-22T05:47:24;98890.25;;;9.40;100.00
65173;BME280;51758;52.218;5.172;2023-03-22T05:49:52;98877.91;;;9.35;100.00
65173;BME280;51758;52.218;5.172;2023-03-22T05:52:20;98882.91;;;9.37;100.00
65173;BME280;51758;52.218;5.172;2023-03-22T05:54:47;98887.66;;;9.40;100.00
65173;BME280;51758;52.218;5.172;2023-03-22T05:57:15;98894.69;;;9.39;100.00
65173;BME280;51758;52.218;5.172;2023-03-22T05:59:45;98889.34;;;9.34;100.00
65173;BME280;51758;52.218;5.172;2023-03-22T06:02:12;98902.72;;;9.38;100.00
65173;BME280;51758;52.218;5.172;2023-03-22T06:04:41;98897.94;;;9.34;100.00
65173;BME280;51758;52.218;5.172;2023-03-22T06:07:08;98904.16;;;9.33;100.00
65173;BME280;51758;52.218;5.172;2023-03-22T06:09:37;98906.56;;;9.35;100.00
65173;BME280;51758;52.218;5.172;2023-03-22T06:12:05;98917.19;;;9.33;100.00
65173;BME280;51758;52.218;5.172;2023-03-22T06:14:33;98910.53;;;9.38;100.00
65173;BME280;51758;52.218;5.172;2023-03-22T06:17:02;98916.03;;;9.48;100.00
65173;BME280;51758;52.218;5.172;2023-03-22T06:19:30;98919.44;;;9.48;100.00
65173;BME280;51758;52.218;5.172;2023-03-22T06:21:57;98912.56;;;9.54;100.00
65173;BME280;51758;52.218;5.172;2023-03-22T06:24:25;98920.94;;;9.56;100.00
65173;BME280;51758;52.218;5.172;2023-03-22T06:26:53;98927.81;;;9.68;100.00
65173;BME280;51758;52.218;5.172;2023-03-22T06:29:21;98932.19;;;9.75;100.00
65173;BME280;51758;52.218;5.172;2023-03-22T06:31:49;98933.88;;;9.81;100.00
65173;BME280;51758;52.218;5.172;2023-03-22T06:34:18;98945.47;;;9.66;100.00
65173;BME280;51758;52.218;5.172;2023-03-22T06:36:46;98957.38;;;9.62;100.00
65173;BME280;51758;52.218;5.172;2023-03-22T06:39:13;98967.84;;;9.74;100.00
65173;BME280;51758;52.218;5.172;2023-03-22T06:41:41;98964.00;;;9.77;100.00
65173;BME280;51758;52.218;5.172;2023-03-22T06:44:09;98970.81;;;9.78;100.00
65173;BME280;51758;52.218;5.172;2023-03-22T06:46:37;98967.97;;;9.79;100.00
65173;BME280;51758;52.218;5.172;2023-03-22T06:49:04;98978.19;;;9.81;100.00
65173;BME280;51758;52.218;5.172;2023-03-22T06:51:35;98991.50;;;9.91;100.00
65173;BME280;51758;52.218;5.172;2023-03-22T06:54:03;98994.13;;;9.91;100.00
65173;BME280;51758;52.218;5.172;2023-03-22T06:56:30;99007.72;;;9.93;100.00
65173;BME280;51758;52.218;5.172;2023-03-22T06:58:58;99004.91;;;9.94;100.00
65173;BME280;51758;52.218;5.172;2023-03-22T07:01:26;99015.63;;;9.86;100.00
65173;BME280;51758;52.218;5.172;2023-03-22T07:03:54;99015.44;;;9.88;100.00
65173;BME280;51758;52.218;5.172;2023-03-22T07:06:21;99024.38;;;9.92;100.00
65173;BME280;51758;52.218;5.172;2023-03-22T07:08:51;99027.00;;;9.92;100.00
65173;BME280;51758;52.218;5.172;2023-03-22T07:11:18;99041.53;;;9.81;100.00
65173;BME280;51758;52.218;5.172;2023-03-22T07:13:46;99032.88;;;9.87;100.00
65173;BME280;51758;52.218;5.172;2023-03-22T07:16:14;99046.91;;;9.86;100.00
65173;BME280;51758;52.218;5.172;2023-03-22T07:18:45;99051.47;;;9.91;100.00
65173;BME280;51758;52.218;5.172;2023-03-22T07:21:13;99055.97;;;9.84;100.00
65173;BME280;51758;52.218;5.172;2023-03-22T07:23:41;99051.13;;;9.87;100.00
65173;BME280;51758;52.218;5.172;2023-03-22T07:26:10;99038.78;;;9.94;100.00
65173;BME280;51758;52.218;5.172;2023-03-22T07:28:39;99043.94;;;10.01;100.00
65173;BME280;51758;52.218;5.172;2023-03-22T07:31:11;99021.41;;;10.06;100.00
65173;BME280;51758;52.218;5.172;2023-03-22T07:33:39;99052.59;;;10.20;100.00
65173;BME280;51758;52.218;5.172;2023-03-22T07:36:08;99055.84;;;10.33;100.00
65173;BME280;51758;52.218;5.172;2023-03-22T07:38:36;99055.75;;;10.40;100.00
65173;BME280;51758;52.218;5.172;2023-03-22T07:41:05;99061.63;;;10.35;100.00
65173;BME280;51758;52.218;5.172;2023-03-22T07:43:34;99059.25;;;10.34;100.00
65173;BME280;51758;52.218;5.172;2023-03-22T07:46:18;99060.78;;;10.23;100.00
65173;BME280;51758;52.218;5.172;2023-03-22T07:48:46;99065.03;;;10.36;100.00
65173;BME280;51758;52.218;5.172;2023-03-22T07:51:14;99069.69;;;10.34;100.00
65173;BME280;51758;52.218;5.172;2023-03-22T07:53:42;99070.16;;;10.43;100.00
65173;BME280;51758;52.218;5.172;2023-03-22T07:56:10;99092.50;;;10.38;100.00
65173;BME280;51758;52.218;5.172;2023-03-22T07:58:39;99086.41;;;10.45;100.00
65173;BME280;51758;52.218;5.172;2023-03-22T08:01:07;99076.28;;;10.36;100.00
65173;BME280;51758;52.218;5.172;2023-03-22T08:03:36;99098.59;;;10.51;100.00
65173;BME280;51758;52.218;5.172;2023-03-22T08:06:05;99092.03;;;10.41;100.00
65173;BME280;51758;52.218;5.172;2023-03-22T08:08:35;99105.47;;;10.45;100.00
65173;BME280;51758;52.218;5.172;2023-03-22T08:11:03;99104.81;;;10.50;100.00
65173;BME280;51758;52.218;5.172;2023-03-22T08:13:31;99109.00;;;10.51;100.00
65173;BME280;51758;52.218;5.172;2023-03-22T08:16:00;99127.03;;;10.52;100.00
65173;BME280;51758;52.218;5.172;2023-03-22T08:18:28;99113.13;;;10.58;100.00
65173;BME280;51758;52.218;5.172;2023-03-22T08:20:57;99125.09;;;10.48;100.00
65173;BME280;51758;52.218;5.172;2023-03-22T08:23:26;99129.59;;;10.59;100.00
65173;BME280;51758;52.218;5.172;2023-03-22T08:26:07;99130.97;;;10.61;100.00
65173;BME280;51758;52.218;5.172;2023-03-22T08:28:35;99122.41;;;10.54;100.00
65173;BME280;51758;52.218;5.172;2023-03-22T08:31:10;99112.31;;;10.58;100.00
65173;BME280;51758;52.218;5.172;2023-03-22T08:33:40;99115.16;;;10.56;100.00
65173;BME280;51758;52.218;5.172;2023-03-22T08:36:11;99110.19;;;10.66;100.00
65173;BME280;51758;52.218;5.172;2023-03-22T08:38:39;99110.31;;;10.60;100.00
65173;BME280;51758;52.218;5.172;2023-03-22T08:41:07;99109.13;;;10.56;100.00
65173;BME280;51758;52.218;5.172;2023-03-22T08:43:36;99107.09;;;10.58;100.00
65173;BME280;51758;52.218;5.172;2023-03-22T08:46:04;99110.72;;;10.57;100.00
65173;BME280;51758;52.218;5.172;2023-03-22T08:48:34;99112.22;;;10.64;100.00
65173;BME280;51758;52.218;5.172;2023-03-22T08:51:04;99103.56;;;10.52;100.00
65173;BME280;51758;52.218;5.172;2023-03-22T08:53:32;99116.03;;;10.50;100.00
65173;BME280;51758;52.218;5.172;2023-03-22T08:56:00;99112.47;;;10.45;100.00
65173;BME280;51758;52.218;5.172;2023-03-22T08:58:29;99114.28;;;10.44;100.00
65173;BME280;51758;52.218;5.172;2023-03-22T09:00:56;99105.81;;;10.30;100.00
65173;BME280;51758;52.218;5.172;2023-03-22T09:03:24;99096.28;;;10.24;100.00
65173;BME280;51758;52.218;5.172;2023-03-22T09:05:53;99088.09;;;10.21;100.00
65173;BME280;51758;52.218;5.172;2023-03-22T09:08:21;99083.94;;;10.13;100.00
65173;BME280;51758;52.218;5.172;2023-03-22T09:10:49;99075.59;;;10.04;100.00
65173;BME280;51758;52.218;5.172;2023-03-22T09:13:17;99054.00;;;9.97;100.00
65173;BME280;51758;52.218;5.172;2023-03-22T09:15:46;99044.38;;;9.98;100.00
65173;BME280;51758;52.218;5.172;2023-03-22T09:18:14;99022.88;;;9.84;100.00
65173;BME280;51758;52.218;5.172;2023-03-22T09:20:43;99027.78;;;9.92;100.00
65173;BME280;51758;52.218;5.172;2023-03-22T09:23:12;99012.94;;;9.93;100.00
65173;BME280;51758;52.218;5.172;2023-03-22T09:25:41;98989.56;;;9.86;100.00
65173;BME280;51758;52.218;5.172;2023-03-22T09:28:09;98983.34;;;9.87;100.00
65173;BME280;51758;52.218;5.172;2023-03-22T09:30:37;98956.50;;;9.87;100.00
65173;BME280;51758;52.218;5.172;2023-03-22T09:33:06;98953.63;;;9.88;100.00
65173;BME280;51758;52.218;5.172;2023-03-22T09:35:33;98933.53;;;9.77;100.00
65173;BME280;51758;52.218;5.172;2023-03-22T09:38:01;98942.22;;;9.71;100.00
65173;BME280;51758;52.218;5.172;2023-03-22T09:40:34;98926.44;;;9.66;100.00
65173;BME280;51758;52.218;5.172;2023-03-22T09:43:05;98916.16;;;9.53;100.00
65173;BME280;51758;52.218;5.172;2023-03-22T09:45:37;98890.50;;;9.56;100.00
65173;BME280;51758;52.218;5.172;2023-03-22T09:48:12;98886.50;;;9.54;100.00
65173;BME280;51758;52.218;5.172;2023-03-22T09:50:44;98852.22;;;9.57;100.00
65173;BME280;51758;52.218;5.172;2023-03-22T09:53:14;98812.75;;;9.53;100.00
65173;BME280;51758;52.218;5.172;2023-03-22T09:55:47;98788.47;;;9.59;100.00
65173;BME280;51758;52.218;5.172;2023-03-22T09:58:22;98745.75;;;9.60;100.00
65173;BME280;51758;52.218;5.172;2023-03-22T10:00:54;98734.41;;;9.55;100.00
65173;BME280;51758;52.218;5.172;2023-03-22T10:03:39;98732.81;;;9.54;100.00
65173;BME280;51758;52.218;5.172;2023-03-22T10:06:14;98712.75;;;9.54;100.00
65173;BME280;51758;52.218;5.172;2023-03-22T10:08:53;98710.16;;;9.54;100.00
65173;BME280;51758;52.218;5.172;2023-03-22T10:11:36;98703.72;;;9.57;100.00
65173;BME280;51758;52.218;5.172;2023-03-22T10:14:19;98694.66;;;9.59;100.00
65173;BME280;51758;52.218;5.172;2023-03-22T10:16:53;98687.66;;;9.60;100.00
65173;BME280;51758;52.218;5.172;2023-03-22T10:19:25;98685.84;;;9.60;100.00
65173;BME280;51758;52.218;5.172;2023-03-22T10:21:55;98685.16;;;9.65;100.00
65173;BME280;51758;52.218;5.172;2023-03-22T10:24:27;98685.50;;;9.68;100.00
65173;BME280;51758;52.218;5.172;2023-03-22T10:26:57;98682.44;;;9.60;100.00
65173;BME280;51758;52.218;5.172;2023-03-22T10:29:29;98685.84;;;9.60;100.00
65173;BME280;51758;52.218;5.172;2023-03-22T10:32:10;98672.81;;;9.60;100.00
65173;BME280;51758;52.218;5.172;2023-03-22T10:34:39;98673.59;;;9.61;100.00
65173;BME280;51758;52.218;5.172;2023-03-22T10:37:11;98671.91;;;9.66;100.00
65173;BME280;51758;52.218;5.172;2023-03-22T10:39:43;98655.81;;;9.58;100.00
65173;BME280;51758;52.218;5.172;2023-03-22T10:42:15;98657.41;;;9.59;100.00
65173;BME280;51758;52.218;5.172;2023-03-22T10:44:47;98649.38;;;9.60;100.00
65173;BME280;51758;52.218;5.172;2023-03-22T10:47:18;98631.94;;;9.61;100.00
65173;BME280;51758;52.218;5.172;2023-03-22T10:49:51;98627.59;;;9.66;100.00
65173;BME280;51758;52.218;5.172;2023-03-22T10:52:30;98608.72;;;9.71;100.00
65173;BME280;51758;52.218;5.172;2023-03-22T10:55:00;98597.03;;;9.74;100.00
65173;BME280;51758;52.218;5.172;2023-03-22T10:57:31;98595.91;;;9.69;100.00
65173;BME280;51758;52.218;5.172;2023-03-22T11:00:03;98585.13;;;9.89;100.00
65173;BME280;51758;52.218;5.172;2023-03-22T11:02:33;98582.19;;;9.86;100.00
65173;BME280;51758;52.218;5.172;2023-03-22T11:05:04;98586.03;;;9.95;100.00
65173;BME280;51758;52.218;5.172;2023-03-22T11:07:33;98592.69;;;10.02;100.00
65173;BME280;51758;52.218;5.172;2023-03-22T11:10:18;98590.69;;;9.93;100.00
65173;BME280;51758;52.218;5.172;2023-03-22T11:12:51;98589.53;;;9.89;100.00
65173;BME280;51758;52.218;5.172;2023-03-22T11:15:23;98576.84;;;9.92;100.00
65173;BME280;51758;52.218;5.172;2023-03-22T11:17:56;98577.06;;;10.02;100.00
65173;BME280;51758;52.218;5.172;2023-03-22T11:20:25;98584.66;;;10.04;100.00
65173;BME280;51758;52.218;5.172;2023-03-22T11:22:59;98581.72;;;10.00;100.00
65173;BME280;51758;52.218;5.172;2023-03-22T11:25:29;98594.28;;;10.03;100.00
65173;BME280;51758;52.218;5.172;2023-03-22T11:28:09;98589.84;;;10.16;100.00
65173;BME280;51758;52.218;5.172;2023-03-22T11:30:57;98599.63;;;10.20;100.00
65173;BME280;51758;52.218;5.172;2023-03-22T11:33:25;98631.94;;;10.19;100.00
65173;BME280;51758;52.218;5.172;2023-03-22T11:35:54;98640.97;;;10.17;100.00
65173;BME280;51758;52.218;5.172;2023-03-22T11:38:28;98646.34;;;10.22;100.00
65173;BME280;51758;52.218;5.172;2023-03-22T11:41:00;98663.91;;;10.26;100.00
65173;BME280;51758;52.218;5.172;2023-03-22T11:43:33;98675.91;;;10.16;100.00
65173;BME280;51758;52.218;5.172;2023-03-22T11:46:03;98699.13;;;10.17;100.00
65173;BME280;51758;52.218;5.172;2023-03-22T11:48:32;98719.38;;;10.22;100.00
65173;BME280;51758;52.218;5.172;2023-03-22T11:51:06;98725.66;;;10.14;100.00
65173;BME280;51758;52.218;5.172;2023-03-22T11:53:37;98705.72;;;10.08;100.00
65173;BME280;51758;52.218;5.172;2023-03-22T11:56:09;98724.94;;;10.25;100.00
65173;BME280;51758;52.218;5.172;2023-03-22T11:58:54;98731.16;;;10.24;100.00
65173;BME280;51758;52.218;5.172;2023-03-22T12:01:38;98740.22;;;10.22;100.00
65173;BME280;51758;52.218;5.172;2023-03-22T12:04:12;98744.41;;;10.23;100.00
65173;BME280;51758;52.218;5.172;2023-03-22T12:06:41;98747.91;;;10.28;100.00
65173;BME280;51758;52.218;5.172;2023-03-22T12:09:18;98745.88;;;10.30;100.00
65173;BME280;51758;52.218;5.172;2023-03-22T12:11:50;98746.13;;;10.29;100.00
65173;BME280;51758;52.218;5.172;2023-03-22T12:14:24;98763.25;;;10.36;100.00
65173;BME280;51758;52.218;5.172;2023-03-22T12:16:56;98770.28;;;10.36;100.00
65173;BME280;51758;52.218;5.172;2023-03-22T12:19:36;98773.44;;;10.26;100.00
65173;BME280;51758;52.218;5.172;2023-03-22T12:22:10;98787.63;;;10.30;100.00
65173;BME280;51758;52.218;5.172;2023-03-22T12:24:38;98801.22;;;10.32;100.00
65173;BME280;51758;52.218;5.172;2023-03-22T12:27:14;98799.63;;;10.31;100.00
65173;BME280;51758;52.218;5.172;2023-03-22T12:29:48;98813.03;;;10.47;100.00
65173;BME280;51758;52.218;5.172;2023-03-22T12:32:21;98801.38;;;10.37;100.00
65173;BME280;51758;52.218;5.172;2023-03-22T12:34:51;98803.06;;;10.44;100.00
65173;BME280;51758;52.218;5.172;2023-03-22T12:37:35;98785.47;;;10.39;100.00
65173;BME280;51758;52.218;5.172;2023-03-22T12:40:07;98803.19;;;10.37;100.00
65173;BME280;51758;52.218;5.172;2023-03-22T12:42:47;98799.56;;;10.38;100.00
65173;BME280;51758;52.218;5.172;2023-03-22T12:45:25;98781.50;;;10.36;100.00
65173;BME280;51758;52.218;5.172;2023-03-22T12:47:58;98778.22;;;10.41;100.00
65173;BME280;51758;52.218;5.172;2023-03-22T12:50:30;98768.25;;;10.50;100.00
65173;BME280;51758;52.218;5.172;2023-03-22T12:53:01;98772.75;;;10.54;100.00
65173;BME280;51758;52.218;5.172;2023-03-22T12:55:32;98757.09;;;10.66;100.00
65173;BME280;51758;52.218;5.172;2023-03-22T12:58:01;98775.50;;;10.48;100.00
65173;BME280;51758;52.218;5.172;2023-03-22T13:00:37;98779.91;;;10.59;100.00
65173;BME280;51758;52.218;5.172;2023-03-22T13:03:18;98787.41;;;10.55;100.00
65173;BME280;51758;52.218;5.172;2023-03-22T13:05:59;98784.56;;;10.57;100.00
65173;BME280;51758;52.218;5.172;2023-03-22T13:09:03;98785.72;;;10.61;100.00
65173;BME280;51758;52.218;5.172;2023-03-22T13:11:38;98782.19;;;10.55;100.00
65173;BME280;51758;52.218;5.172;2023-03-22T13:14:06;98784.13;;;10.48;100.00
65173;BME280;51758;52.218;5.172;2023-03-22T13:16:50;98775.50;;;10.59;100.00
65173;BME280;51758;52.218;5.172;2023-03-22T13:19:28;98772.19;;;10.52;100.00
65173;BME280;51758;52.218;5.172;2023-03-22T13:22:17;98771.53;;;10.57;100.00
65173;BME280;51758;52.218;5.172;2023-03-22T13:25:04;98771.41;;;10.63;100.00